Terminal Aerodrome Forecast
Issued by NWS

Home | Current Version | Previous Version | Graphics & Text | Print | Product List | Glossary On
Versions: 1 2 3 4 5 6 7 8 9 10 11 12 13 14 15 16 17 18 19 20 21 22 23 24 25 26 27 28 29
718
FTUS43 KLOT 050622 AAA
TAFMDW
TAF AMD
KMDW 050622Z 0506/0606 01015G24KT P6SM FEW025 BKN040
      TEMPO 0506/0510 BKN025
     FM051100 01012KT P6SM BKN050
     FM052000 04010KT P6SM FEW040
     FM060100 25003KT P6SM SCT250=

USA.gov is the U.S. government's official web portal to all federal, state and local government web resources and services.